createdAt,value
2018-08-20T00:00:27.801Z,999.04
2018-08-20T00:01:37.889Z,999.03
2018-08-20T00:02:47.972Z,999.02
2018-08-20T00:03:58.061Z,999
2018-08-20T00:05:08.124Z,999
2018-08-20T00:06:17.949Z,999.01
2018-08-20T00:07:28.016Z,999
2018-08-20T00:08:37.873Z,999.01
2018-08-20T00:09:47.730Z,998.98
2018-08-20T00:10:57.817Z,998.98
2018-08-20T00:12:08.410Z,998.99
2018-08-20T00:13:18.515Z,998.97
2018-08-20T00:14:28.581Z,999
2018-08-20T00:15:38.663Z,998.99
2018-08-20T00:16:48.736Z,998.98
2018-08-20T00:17:58.814Z,998.99
2018-08-20T00:19:08.908Z,998.95
2018-08-20T00:20:18.985Z,998.98
2018-08-20T00:21:29.071Z,998.95
2018-08-20T00:22:39.154Z,998.96
2018-08-20T00:23:49.211Z,998.92
2018-08-20T00:24:59.297Z,998.93
2018-08-20T00:26:09.113Z,998.91
2018-08-20T00:27:19.192Z,998.9
2018-08-20T00:28:29.016Z,998.93
2018-08-20T00:29:39.081Z,998.89
2018-08-20T00:30:49.165Z,998.93
2018-08-20T00:31:59.227Z,998.9
2018-08-20T00:33:09.369Z,998.91
2018-08-20T00:34:19.467Z,998.87
2018-08-20T00:35:29.553Z,998.87
2018-08-20T00:36:39.371Z,998.84
2018-08-20T00:37:49.199Z,998.85
2018-08-20T00:38:59.332Z,998.83
2018-08-20T00:40:09.417Z,998.85
2018-08-20T00:41:19.518Z,998.85
2018-08-20T00:42:29.617Z,998.84
2018-08-20T00:43:39.691Z,998.86
2018-08-20T00:44:49.570Z,998.9
2018-08-20T00:45:59.699Z,998.89
2018-08-20T00:47:09.530Z,998.89
2018-08-20T00:48:19.610Z,998.92
2018-08-20T00:49:29.409Z,998.9
2018-08-20T00:50:39.224Z,998.89
2018-08-20T00:51:49.317Z,998.9
2018-08-20T00:52:59.410Z,998.87
2018-08-20T00:54:09.484Z,998.84
2018-08-20T00:55:19.571Z,998.84
2018-08-20T00:56:29.658Z,998.85
2018-08-20T00:57:39.736Z,998.88
2018-08-20T00:58:49.808Z,998.83
2018-08-20T00:59:59.655Z,998.85
2018-08-20T01:01:09.784Z,998.83
2018-08-20T01:02:19.920Z,998.85
2018-08-20T01:03:29.734Z,998.86
2018-08-20T01:04:39.284Z,998.83
2018-08-20T01:05:48.574Z,998.86
2018-08-20T01:06:58.658Z,998.86
2018-08-20T01:08:08.746Z,998.86
2018-08-20T01:09:18.557Z,998.81
2018-08-20T01:10:28.115Z,998.81
2018-08-20T01:11:38.187Z,998.79
2018-08-20T01:12:48.265Z,998.84
2018-08-20T01:13:58.077Z,998.87
2018-08-20T01:15:07.911Z,998.86
2018-08-20T01:16:17.979Z,998.86
2018-08-20T01:17:28.035Z,998.84
2018-08-20T01:18:38.106Z,998.84
2018-08-20T01:19:48.188Z,998.84
2018-08-20T01:20:58.008Z,998.82
2018-08-20T01:22:08.096Z,998.79
2018-08-20T01:23:18.196Z,998.78
2018-08-20T01:24:28.274Z,998.77
2018-08-20T01:25:38.367Z,998.82
2018-08-20T01:26:48.450Z,998.8
2018-08-20T01:27:58.531Z,998.81
2018-08-20T01:29:08.605Z,998.79
2018-08-20T01:30:18.422Z,998.8
2018-08-20T01:31:28.244Z,998.81
2018-08-20T01:32:38.308Z,998.82
2018-08-20T01:33:48.128Z,998.83
2018-08-20T01:34:57.679Z,998.79
2018-08-20T01:36:07.748Z,998.82
2018-08-20T01:37:17.829Z,998.85
2018-08-20T01:38:27.648Z,998.84
2018-08-20T01:39:37.712Z,998.82
2018-08-20T01:40:47.517Z,998.84
2018-08-20T01:41:57.613Z,998.78
2018-08-20T01:43:07.724Z,998.75
2018-08-20T01:44:17.787Z,998.75
2018-08-20T01:45:27.612Z,998.76
2018-08-20T01:46:37.695Z,998.77
2018-08-20T01:47:47.504Z,998.74
2018-08-20T01:48:57.635Z,998.74
2018-08-20T01:50:07.699Z,998.69
2018-08-20T01:51:17.800Z,998.71
2018-08-20T01:52:27.868Z,998.72
2018-08-20T01:53:37.692Z,998.68
2018-08-20T01:54:47.827Z,998.73
2018-08-20T01:55:57.961Z,998.7
2018-08-20T01:57:08.107Z,998.7
2018-08-20T01:58:18.198Z,998.75
2018-08-20T01:59:28.285Z,998.71
2018-08-20T02:00:38.377Z,998.7
2018-08-20T02:01:48.244Z,998.7
2018-08-20T02:02:58.060Z,998.71
2018-08-20T02:04:07.944Z,998.74
2018-08-20T02:05:17.759Z,998.72
2018-08-20T02:06:27.904Z,998.72
2018-08-20T02:07:37.447Z,998.73
2018-08-20T02:08:47.000Z,998.75
2018-08-20T02:09:56.282Z,998.76
2018-08-20T02:11:06.370Z,998.74
2018-08-20T02:12:16.468Z,998.75
2018-08-20T02:13:26.280Z,998.75
2018-08-20T02:14:36.348Z,998.72
2018-08-20T02:15:46.443Z,998.76
2018-08-20T02:16:56.266Z,998.76
2018-08-20T02:18:06.141Z,998.74
2018-08-20T02:19:16.214Z,998.7
2018-08-20T02:20:26.032Z,998.72
2018-08-20T02:21:35.845Z,998.72
2018-08-20T02:22:45.388Z,998.71
2018-08-20T02:23:55.207Z,998.69
2018-08-20T02:25:04.774Z,998.69
2018-08-20T02:26:14.604Z,998.68
2018-08-20T02:27:24.683Z,998.68
2018-08-20T02:28:34.756Z,998.68
2018-08-20T02:29:44.625Z,998.65
2018-08-20T02:30:54.702Z,998.66
2018-08-20T02:32:04.835Z,998.64
2018-08-20T02:33:14.651Z,998.64
2018-08-20T02:34:24.468Z,998.62
2018-08-20T02:35:34.603Z,998.63
2018-08-20T02:36:44.421Z,998.64
2018-08-20T02:37:54.502Z,998.66
2018-08-20T02:39:04.580Z,998.61
2018-08-20T02:40:14.677Z,998.64
2018-08-20T02:41:24.773Z,998.64
2018-08-20T02:42:34.846Z,998.63
2018-08-20T02:43:44.966Z,998.57
2018-08-20T02:44:55.054Z,998.58
2018-08-20T02:46:05.145Z,998.58
2018-08-20T02:47:15.283Z,998.6
2018-08-20T02:48:24.850Z,998.63
2018-08-20T02:49:34.701Z,998.65
2018-08-20T02:50:44.511Z,998.65
2018-08-20T02:51:54.580Z,998.64
2018-08-20T02:53:04.388Z,998.65
2018-08-20T02:54:14.464Z,998.65
2018-08-20T02:55:24.541Z,998.63
2018-08-20T02:56:34.630Z,998.68
2018-08-20T02:57:44.739Z,998.71
2018-08-20T02:58:54.823Z,998.71
2018-08-20T03:00:04.916Z,998.69
2018-08-20T03:01:15.004Z,998.69
2018-08-20T03:02:25.084Z,998.69
2018-08-20T03:34:46.534Z,998.7
2018-08-20T03:35:56.627Z,998.72
2018-08-20T03:37:06.693Z,998.71
2018-08-20T03:38:16.766Z,998.71
2018-08-20T03:39:26.851Z,998.7
2018-08-20T03:40:36.714Z,998.71
2018-08-20T03:41:46.775Z,998.72
2018-08-20T03:42:56.600Z,998.72
2018-08-20T03:44:06.415Z,998.7
2018-08-20T03:45:16.486Z,998.72
2018-08-20T03:46:26.860Z,998.76
2018-08-20T03:47:36.935Z,998.74
2018-08-20T03:48:47.004Z,998.71
2018-08-20T03:49:56.807Z,998.74
2018-08-20T03:51:06.610Z,998.74
2018-08-20T03:52:16.419Z,998.76
2018-08-20T03:53:26.497Z,998.74
2018-08-20T03:54:36.567Z,998.73
2018-08-20T03:55:46.639Z,998.7
2018-08-20T03:56:56.451Z,998.72
2018-08-20T03:58:06.315Z,998.74
2018-08-20T03:59:16.399Z,998.77
2018-08-20T04:00:25.699Z,998.73
2018-08-20T04:01:34.997Z,998.75
2018-08-20T04:02:44.547Z,998.73
2018-08-20T04:03:54.365Z,998.7
2018-08-20T04:05:03.948Z,998.73
2018-08-20T04:06:14.488Z,998.74
2018-08-20T04:07:24.301Z,998.77
2018-08-20T04:08:34.415Z,998.77
2018-08-20T04:09:44.246Z,998.78
2018-08-20T04:10:54.325Z,998.8
2018-08-20T04:12:04.399Z,998.8
2018-08-20T04:13:14.500Z,998.8
2018-08-20T04:14:24.592Z,998.79
2018-08-20T04:15:34.676Z,998.8
2018-08-20T04:16:44.779Z,998.83
2018-08-20T04:17:54.594Z,998.85
2018-08-20T04:19:04.674Z,998.85
2018-08-20T04:20:14.485Z,998.85
2018-08-20T04:21:24.604Z,998.86
2018-08-20T04:22:34.697Z,998.86
2018-08-20T04:23:44.777Z,998.83
2018-08-20T04:24:54.874Z,998.86
2018-08-20T04:26:04.965Z,998.87
2018-08-20T04:27:14.830Z,998.85
2018-08-20T04:28:24.897Z,998.88
2018-08-20T04:29:34.966Z,998.84
2018-08-20T04:30:45.088Z,998.85
2018-08-20T04:31:55.333Z,998.9
2018-08-20T04:33:05.197Z,998.87
2018-08-20T04:34:15.265Z,998.92
2018-08-20T04:35:25.085Z,998.93
2018-08-20T04:36:35.262Z,998.95
2018-08-20T04:37:45.392Z,998.96
2018-08-20T04:38:55.481Z,998.97
2018-08-20T04:40:05.402Z,998.97
2018-08-20T04:41:15.475Z,998.98
2018-08-20T04:42:25.551Z,998.96
2018-08-20T04:43:35.615Z,999.04
2018-08-20T04:44:45.785Z,999.02
2018-08-20T04:45:55.887Z,999.02
2018-08-20T04:47:05.978Z,999.01
2018-08-20T04:48:15.815Z,999.04
2018-08-20T04:49:25.886Z,999.07
2018-08-20T04:50:35.741Z,999.06
2018-08-20T04:51:46.319Z,999.06
2018-08-20T04:52:56.466Z,999.11
2018-08-20T04:54:06.599Z,999.13
2018-08-20T04:55:16.436Z,999.09
2018-08-20T04:56:26.580Z,999.11
2018-08-20T04:57:36.660Z,999.09
2018-08-20T04:58:46.205Z,999.09
2018-08-20T04:59:56.287Z,999.09
2018-08-20T05:01:06.350Z,999.11
2018-08-20T05:02:16.471Z,999.16
2018-08-20T05:03:26.282Z,999.26
2018-08-20T05:04:36.103Z,999.38
2018-08-20T05:05:46.177Z,999.33
2018-08-20T05:06:56.284Z,999.34
2018-08-20T05:08:06.384Z,999.49
2018-08-20T05:09:16.473Z,999.49
2018-08-20T05:10:26.567Z,999.42
2018-08-20T05:11:36.655Z,999.49
2018-08-20T05:12:46.731Z,999.47
2018-08-20T05:13:56.602Z,999.46
2018-08-20T05:15:06.423Z,999.48
2018-08-20T05:16:16.535Z,999.51
2018-08-20T05:17:26.614Z,999.48
2018-08-20T05:18:36.683Z,999.43
2018-08-20T05:19:46.891Z,999.47
2018-08-20T05:20:56.968Z,999.42
2018-08-20T05:22:06.798Z,999.36
2018-08-20T05:23:16.871Z,999.36
2018-08-20T05:24:26.964Z,999.37
2018-08-20T05:25:36.889Z,999.35
2018-08-20T05:26:47.077Z,999.38
2018-08-20T05:27:57.006Z,999.32
2018-08-20T05:29:07.155Z,999.29
2018-08-20T05:30:17.360Z,999.32
2018-08-20T05:31:27.431Z,999.3
2018-08-20T05:32:37.256Z,999.32
2018-08-20T05:33:47.343Z,999.32
2018-08-20T05:34:57.181Z,999.37
2018-08-20T05:36:07.272Z,999.33
2018-08-20T05:37:17.353Z,999.37
2018-08-20T05:38:27.205Z,999.4
2018-08-20T05:39:37.274Z,999.38
2018-08-20T05:40:47.376Z,999.39
2018-08-20T05:41:57.488Z,999.43
2018-08-20T05:43:07.619Z,999.46
2018-08-20T05:44:17.686Z,999.46
2018-08-20T05:45:27.745Z,999.51
2018-08-20T05:46:37.818Z,999.52
2018-08-20T05:47:47.664Z,999.49
2018-08-20T05:48:57.752Z,999.37
2018-08-20T05:50:07.763Z,999.29
2018-08-20T05:51:17.972Z,999.34
2018-08-20T05:52:28.079Z,999.34
2018-08-20T05:53:37.935Z,999.43
2018-08-20T05:54:48.105Z,999.49
2018-08-20T05:55:58.210Z,999.39
2018-08-20T05:57:08.275Z,999.3
2018-08-20T05:58:18.352Z,999.37
2018-08-20T05:59:28.433Z,999.35
2018-08-20T06:00:38.513Z,999.35
2018-08-20T06:01:48.572Z,999.36
2018-08-20T06:02:58.678Z,999.36
2018-08-20T06:04:08.489Z,999.34
2018-08-20T06:05:18.312Z,999.39
2018-08-20T06:06:28.375Z,999.49
2018-08-20T06:07:38.443Z,999.57
2018-08-20T06:08:48.738Z,999.57
2018-08-20T06:09:58.834Z,999.51
2018-08-20T06:11:08.907Z,999.46
2018-08-20T06:12:18.711Z,999.43
2018-08-20T06:13:28.794Z,999.41
2018-08-20T06:14:38.904Z,999.4
2018-08-20T06:15:49.077Z,999.41
2018-08-20T06:16:59.190Z,999.46
2018-08-20T06:18:09.016Z,999.46
2018-08-20T06:19:19.152Z,999.48
2018-08-20T06:20:28.964Z,999.47
2018-08-20T06:21:39.047Z,999.49
2018-08-20T06:22:48.881Z,999.51
2018-08-20T06:23:58.719Z,999.51
2018-08-20T06:25:08.697Z,999.49
2018-08-20T06:26:18.799Z,999.51
2018-08-20T06:27:28.871Z,999.49
2018-08-20T06:28:38.997Z,999.51
2018-08-20T06:29:49.065Z,999.53
2018-08-20T06:30:58.889Z,999.48
2018-08-20T06:32:09.035Z,999.51
2018-08-20T06:33:18.844Z,999.51
2018-08-20T06:34:28.672Z,999.51
2018-08-20T06:35:38.499Z,999.55
2018-08-20T06:36:49.094Z,999.54
2018-08-20T06:37:58.926Z,999.55
2018-08-20T06:39:09.002Z,999.58
2018-08-20T06:40:18.826Z,999.57
2018-08-20T06:41:28.686Z,999.59
2018-08-20T06:42:38.965Z,999.61
2018-08-20T06:43:48.514Z,999.61
2018-08-20T06:44:58.599Z,999.57
2018-08-20T06:46:08.683Z,999.58
2018-08-20T06:47:18.504Z,999.52
2018-08-20T06:48:28.071Z,999.56
2018-08-20T06:49:38.240Z,999.52
2018-08-20T06:50:48.299Z,999.55
2018-08-20T06:51:58.422Z,999.54
2018-08-20T06:53:08.483Z,999.56
2018-08-20T06:54:18.548Z,999.54
2018-08-20T06:55:28.858Z,999.55
2018-08-20T06:56:38.940Z,999.56
2018-08-20T06:57:48.995Z,999.59
2018-08-20T06:58:58.810Z,999.58
2018-08-20T07:00:08.633Z,999.59
2018-08-20T07:01:18.711Z,999.58
2018-08-20T07:02:28.527Z,999.6
2018-08-20T07:03:38.369Z,999.62
2018-08-20T07:04:48.471Z,999.62
2018-08-20T07:05:58.547Z,999.65
2018-08-20T07:07:08.390Z,999.66
2018-08-20T07:08:18.470Z,999.67
2018-08-20T07:09:28.563Z,999.67
2018-08-20T07:10:38.661Z,999.61
2018-08-20T07:11:48.791Z,999.64
2018-08-20T07:12:59.216Z,999.6
2018-08-20T07:14:09.306Z,999.63
2018-08-20T07:15:19.432Z,999.6
2018-08-20T07:16:29.518Z,999.68
2018-08-20T07:17:39.616Z,999.65
2018-08-20T07:18:49.690Z,999.63
2018-08-20T07:19:59.762Z,999.66
2018-08-20T07:21:09.582Z,999.67
2018-08-20T07:22:19.665Z,999.62
2018-08-20T07:23:29.832Z,999.62
2018-08-20T07:24:40.554Z,999.65
2018-08-20T07:25:50.351Z,999.68
2018-08-20T07:27:00.446Z,999.68
2018-08-20T07:28:10.509Z,999.67
2018-08-20T07:29:20.625Z,999.65
2018-08-20T07:30:30.695Z,999.61
2018-08-20T07:31:40.506Z,999.62
2018-08-20T07:32:50.603Z,999.62
2018-08-20T07:34:00.978Z,999.6
2018-08-20T07:35:11.113Z,999.65
2018-08-20T07:36:20.936Z,999.65
2018-08-20T07:37:30.764Z,999.64
2018-08-20T07:38:40.311Z,999.68
2018-08-20T07:39:50.138Z,999.65
2018-08-20T07:41:01.269Z,999.69
2018-08-20T07:42:11.097Z,999.63
2018-08-20T07:43:21.259Z,999.71
2018-08-20T07:44:31.343Z,999.67
2018-08-20T07:45:41.466Z,999.7
2018-08-20T07:46:51.537Z,999.7
2018-08-20T07:48:01.632Z,999.73
2018-08-20T07:49:11.739Z,999.72
2018-08-20T07:50:21.828Z,999.71
2018-08-20T07:51:31.915Z,999.69
2018-08-20T07:52:41.731Z,999.7
2018-08-20T07:53:51.817Z,999.7
2018-08-20T07:55:01.908Z,999.73
2018-08-20T07:56:11.516Z,999.73
2018-08-20T07:57:21.602Z,999.7
2018-08-20T07:58:31.690Z,999.74
2018-08-20T07:59:41.781Z,999.79
2018-08-20T08:00:51.877Z,999.78
2018-08-20T08:02:02.021Z,999.82
2018-08-20T08:03:12.110Z,999.78
2018-08-20T08:04:22.183Z,999.82
2018-08-20T08:05:32.244Z,999.81
2018-08-20T08:06:42.372Z,999.77
2018-08-20T08:07:52.229Z,999.79
2018-08-20T08:09:02.120Z,999.73
2018-08-20T08:10:12.212Z,999.75
2018-08-20T08:11:22.309Z,999.75
2018-08-20T08:12:32.137Z,999.71
2018-08-20T08:13:42.264Z,999.7
2018-08-20T08:14:52.088Z,999.69
2018-08-20T08:16:02.182Z,999.69
2018-08-20T08:17:11.994Z,999.64
2018-08-20T08:18:22.068Z,999.61
2018-08-20T08:19:32.192Z,999.62
2018-08-20T08:20:41.767Z,999.59
2018-08-20T08:21:51.850Z,999.62
2018-08-20T08:23:01.917Z,999.55
2018-08-20T08:24:11.727Z,999.59
2018-08-20T08:25:21.541Z,999.58
2018-08-20T08:26:31.427Z,999.55
2018-08-20T08:27:41.544Z,999.57
2018-08-20T08:28:51.635Z,999.57
2018-08-20T08:30:01.727Z,999.54
2018-08-20T08:31:11.614Z,999.56
2018-08-20T08:32:21.692Z,999.55
2018-08-20T08:33:31.780Z,999.59
2018-08-20T08:34:41.871Z,999.53
2018-08-20T08:35:51.975Z,999.54
2018-08-20T08:37:01.808Z,999.54
2018-08-20T08:38:11.998Z,999.48
2018-08-20T08:39:21.890Z,999.48
2018-08-20T08:40:31.726Z,999.49
2018-08-20T08:41:41.824Z,999.46
2018-08-20T08:42:51.908Z,999.48
2018-08-20T08:44:01.733Z,999.43
2018-08-20T08:45:11.806Z,999.42
2018-08-20T08:46:21.891Z,999.37
2018-08-20T08:47:31.959Z,999.36
2018-08-20T08:48:41.522Z,999.35
2018-08-20T08:49:51.379Z,999.35
2018-08-20T08:51:01.761Z,999.3
2018-08-20T08:52:11.835Z,999.31
2018-08-20T08:53:21.651Z,999.33
2018-08-20T08:54:31.749Z,999.36
2018-08-20T08:55:41.836Z,999.35
2018-08-20T08:56:51.654Z,999.36
2018-08-20T08:58:01.821Z,999.34
2018-08-20T08:59:11.643Z,999.3
2018-08-20T09:00:21.527Z,999.31
2018-08-20T09:01:31.484Z,999.33
2018-08-20T09:02:41.047Z,999.33
2018-08-20T09:03:51.109Z,999.35
2018-08-20T09:05:01.181Z,999.32
2018-08-20T09:06:11.291Z,999.32
2018-08-20T09:07:21.390Z,999.3
2018-08-20T09:08:31.476Z,999.26
2018-08-20T09:09:41.585Z,999.26
2018-08-20T09:10:51.403Z,999.22
2018-08-20T09:12:01.480Z,999.22
2018-08-20T09:13:11.555Z,999.22
2018-08-20T09:14:21.627Z,999.23
2018-08-20T09:15:31.700Z,999.21
2018-08-20T09:16:41.520Z,999.21
2018-08-20T09:17:51.646Z,999.24
2018-08-20T09:19:01.487Z,999.21
2018-08-20T09:20:11.574Z,999.23
2018-08-20T09:21:21.662Z,999.19
2018-08-20T09:22:31.241Z,999.19
2018-08-20T09:23:41.362Z,999.21
2018-08-20T09:24:51.459Z,999.22
2018-08-20T09:26:01.544Z,999.21
2018-08-20T09:27:11.381Z,999.23
2018-08-20T09:28:21.233Z,999.13
2018-08-20T09:29:31.078Z,999.16
2018-08-20T09:30:40.903Z,999.14
2018-08-20T09:31:50.716Z,999.09
2018-08-20T09:33:00.889Z,999.14
2018-08-20T09:34:10.980Z,999.13
2018-08-20T09:35:21.054Z,999.07
2018-08-20T09:36:30.873Z,999.09
2018-08-20T09:37:40.958Z,999.14
2018-08-20T09:38:50.823Z,999.12
2018-08-20T09:40:00.925Z,999.12
2018-08-20T09:41:11.010Z,999.1
2018-08-20T09:42:21.124Z,999.1
2018-08-20T09:43:31.203Z,999.08
2018-08-20T09:44:41.431Z,999.07
2018-08-20T09:45:51.528Z,999.07
2018-08-20T09:47:01.613Z,999.05
2018-08-20T09:48:11.447Z,999.03
2018-08-20T09:49:21.576Z,999.05
2018-08-20T09:50:31.671Z,999.06
2018-08-20T09:51:41.740Z,999.04
2018-08-20T09:52:51.820Z,999.02
2018-08-20T09:54:01.898Z,999.03
2018-08-20T09:55:11.995Z,999
2018-08-20T09:56:22.112Z,999
2018-08-20T09:57:32.198Z,999.04
2018-08-20T09:58:43.093Z,999.04
2018-08-20T09:59:53.180Z,999.03
2018-08-20T10:01:03.257Z,999.04
2018-08-20T10:02:13.074Z,998.99
2018-08-20T10:03:23.159Z,999.02
2018-08-20T10:04:32.985Z,999.02
2018-08-20T10:05:42.806Z,998.99
2018-08-20T10:06:52.904Z,998.96
2018-08-20T10:08:03.005Z,998.99
2018-08-20T10:09:12.318Z,998.98
2018-08-20T10:10:22.198Z,998.98
2018-08-20T10:11:32.268Z,999.01
2018-08-20T10:12:42.097Z,998.98
2018-08-20T10:13:51.676Z,998.96
2018-08-20T10:15:01.749Z,998.99
2018-08-20T10:16:11.593Z,998.98
2018-08-20T10:17:21.409Z,998.97
2018-08-20T10:18:31.330Z,998.95
2018-08-20T10:19:41.670Z,998.93
2018-08-20T10:20:51.755Z,998.98
2018-08-20T10:22:01.627Z,998.95
2018-08-20T10:23:11.724Z,998.94
2018-08-20T10:24:21.825Z,998.94
2018-08-20T10:25:32.037Z,998.92
2018-08-20T10:26:41.874Z,998.87
2018-08-20T10:27:51.962Z,998.89
2018-08-20T10:29:02.084Z,998.86
2018-08-20T10:30:12.157Z,998.85
2018-08-20T10:31:22.310Z,998.85
2018-08-20T10:32:32.122Z,998.84
2018-08-20T10:33:42.222Z,998.79
2018-08-20T10:34:52.313Z,998.8
2018-08-20T10:36:02.463Z,998.81
2018-08-20T10:37:12.552Z,998.78
2018-08-20T10:38:22.414Z,998.75
2018-08-20T10:39:32.524Z,998.72
2018-08-20T10:40:42.361Z,998.68
2018-08-20T10:41:52.446Z,998.75
2018-08-20T10:43:02.535Z,998.72
2018-08-20T10:44:12.085Z,998.7
2018-08-20T10:45:22.174Z,998.7
2018-08-20T10:46:32.016Z,998.66
2018-08-20T10:47:42.105Z,998.66
2018-08-20T10:48:52.198Z,998.69
2018-08-20T10:50:02.074Z,998.64
2018-08-20T10:51:12.336Z,998.62
2018-08-20T10:52:22.416Z,998.67
2018-08-20T10:53:32.506Z,998.61
2018-08-20T10:54:42.638Z,998.64
2018-08-20T10:55:51.938Z,998.62
2018-08-20T10:57:01.782Z,998.61
2018-08-20T10:58:11.367Z,998.64
2018-08-20T10:59:21.212Z,998.59
2018-08-20T11:00:30.868Z,998.6
2018-08-20T11:01:40.945Z,998.61
2018-08-20T11:02:51.027Z,998.56
2018-08-20T11:04:00.911Z,998.6
2018-08-20T11:05:11.036Z,998.51
2018-08-20T11:06:21.168Z,998.52
2018-08-20T11:07:31.280Z,998.46
2018-08-20T11:08:41.098Z,998.52
2018-08-20T11:09:51.233Z,998.48
2018-08-20T11:11:01.512Z,998.47
2018-08-20T11:12:11.711Z,998.48
2018-08-20T11:13:21.569Z,998.48
2018-08-20T11:14:31.395Z,998.47
2018-08-20T11:15:41.254Z,998.41
2018-08-20T11:16:51.340Z,998.44
2018-08-20T11:18:01.480Z,998.44
2018-08-20T11:19:11.574Z,998.42
2018-08-20T11:20:21.731Z,998.38
2018-08-20T11:21:31.820Z,998.38
2018-08-20T11:22:41.914Z,998.34
2018-08-20T11:23:51.805Z,998.32
2018-08-20T11:25:01.387Z,998.34
2018-08-20T11:26:11.750Z,998.32
2018-08-20T11:27:21.858Z,998.31
2018-08-20T11:28:32.113Z,998.32
2018-08-20T11:29:41.946Z,998.25
2018-08-20T11:30:52.041Z,998.26
2018-08-20T11:32:02.120Z,998.27
2018-08-20T11:33:12.194Z,998.22
2018-08-20T11:34:22.282Z,998.21
2018-08-20T11:35:32.372Z,998.18
2018-08-20T11:36:42.538Z,998.16
2018-08-20T11:37:52.768Z,998.15
2018-08-20T11:39:02.882Z,998.15
2018-08-20T11:40:12.714Z,998.21
2018-08-20T11:41:22.541Z,998.2
2018-08-20T11:42:32.631Z,998.18
2018-08-20T11:43:42.710Z,998.14
2018-08-20T11:44:52.555Z,998.14
2018-08-20T11:46:02.358Z,998.12
2018-08-20T11:47:12.206Z,998.1
2018-08-20T11:48:22.309Z,998.09
2018-08-20T11:49:32.445Z,998.11
2018-08-20T11:50:42.266Z,998.07
2018-08-20T11:51:52.361Z,998.08
2018-08-20T11:53:02.445Z,998.06
2018-08-20T11:54:12.283Z,998.07
2018-08-20T11:55:22.361Z,998
2018-08-20T11:56:32.198Z,998.02
2018-08-20T11:57:42.305Z,997.98
2018-08-20T11:58:52.198Z,997.97
2018-08-20T12:00:02.619Z,997.88
2018-08-20T12:01:12.450Z,997.87
2018-08-20T12:02:22.546Z,997.86
2018-08-20T12:03:32.637Z,997.88
2018-08-20T12:04:42.726Z,997.88
2018-08-20T12:05:52.564Z,997.83
2018-08-20T12:07:02.478Z,997.77
2018-08-20T12:08:12.983Z,997.77
2018-08-20T12:09:23.075Z,997.8
2018-08-20T12:10:32.649Z,997.79
2018-08-20T12:11:42.720Z,997.8
2018-08-20T12:12:52.278Z,997.77
2018-08-20T12:14:01.843Z,997.7
2018-08-20T12:15:11.991Z,997.73
2018-08-20T12:16:22.192Z,997.7
2018-08-20T12:17:32.295Z,997.69
2018-08-20T12:18:42.449Z,997.66
2018-08-20T12:19:52.535Z,997.64
2018-08-20T12:21:02.626Z,997.64
2018-08-20T12:22:12.744Z,997.61
2018-08-20T12:23:23.151Z,997.59
2018-08-20T12:24:33.247Z,997.59
2018-08-20T12:25:43.355Z,997.57
2018-08-20T12:26:53.442Z,997.55
2018-08-20T12:28:03.535Z,997.54
2018-08-20T12:29:13.884Z,997.54
2018-08-20T12:30:23.966Z,997.54
2018-08-20T12:31:34.077Z,997.54
2018-08-20T12:32:44.153Z,997.53
2018-08-20T12:33:54.228Z,997.55
2018-08-20T12:35:04.325Z,997.58
2018-08-20T12:36:14.420Z,997.55
2018-08-20T12:37:24.516Z,997.58
2018-08-20T12:38:34.593Z,997.53
2018-08-20T12:39:44.737Z,997.5
2018-08-20T12:40:54.917Z,997.51
2018-08-20T12:42:04.770Z,997.5
2018-08-20T12:43:14.908Z,997.5
2018-08-20T12:44:24.741Z,997.46
2018-08-20T12:45:34.822Z,997.52
2018-08-20T12:46:44.707Z,997.49
2018-08-20T12:47:54.530Z,997.5
2018-08-20T12:49:04.703Z,997.46
2018-08-20T12:50:14.784Z,997.46
2018-08-20T12:51:24.870Z,997.45
2018-08-20T12:52:34.968Z,997.41
2018-08-20T12:53:45.051Z,997.41
2018-08-20T12:54:54.864Z,997.44
2018-08-20T12:56:04.954Z,997.41
2018-08-20T12:57:15.031Z,997.46
2018-08-20T12:58:24.879Z,997.48
2018-08-20T12:59:34.987Z,997.49
2018-08-20T13:00:45.181Z,997.41
2018-08-20T13:01:55.601Z,997.38
2018-08-20T13:03:05.687Z,997.34
2018-08-20T13:04:15.782Z,997.37
2018-08-20T13:05:25.882Z,997.4
2018-08-20T13:06:35.973Z,997.36
2018-08-20T13:07:46.064Z,997.36
2018-08-20T13:08:55.947Z,997.39
2018-08-20T13:10:06.539Z,997.39
2018-08-20T13:11:16.632Z,997.36
2018-08-20T13:12:26.629Z,997.28
2018-08-20T13:13:36.456Z,997.37
2018-08-20T13:14:46.294Z,997.33
2018-08-20T13:15:56.246Z,997.32
2018-08-20T13:17:07.251Z,997.35
2018-08-20T13:18:17.359Z,997.32
2018-08-20T13:19:27.252Z,997.27
2018-08-20T13:20:37.381Z,997.21
2018-08-20T13:21:47.247Z,997.26
2018-08-20T13:22:57.058Z,997.28
2018-08-20T13:24:06.932Z,997.22
2018-08-20T13:25:17.019Z,997.19
2018-08-20T13:26:27.119Z,997.17
2018-08-20T13:27:37.211Z,997.22
2018-08-20T13:28:47.286Z,997.22
2018-08-20T13:29:57.174Z,997.18
2018-08-20T13:31:07.297Z,997.15
2018-08-20T13:32:17.156Z,997.16
2018-08-20T13:33:27.323Z,997.18
2018-08-20T13:34:37.163Z,997.11
2018-08-20T13:35:46.729Z,997.07
2018-08-20T13:36:56.302Z,997.06
2018-08-20T13:38:06.445Z,997.08
2018-08-20T13:39:16.589Z,997.07
2018-08-20T13:40:26.427Z,997.11
2018-08-20T13:41:36.552Z,997.07
2018-08-20T13:42:46.375Z,997.06
2018-08-20T13:43:56.554Z,997.02
2018-08-20T13:45:07.224Z,997.06
2018-08-20T13:46:17.312Z,996.99
2018-08-20T13:47:27.163Z,996.93
2018-08-20T13:48:37.017Z,997.06
2018-08-20T13:49:47.100Z,997.03
2018-08-20T13:50:56.956Z,997.02
2018-08-20T13:52:06.778Z,996.97
2018-08-20T13:53:16.936Z,996.96
2018-08-20T13:54:27.018Z,996.97
2018-08-20T13:55:37.114Z,996.96
2018-08-20T13:56:47.276Z,996.98
2018-08-20T13:57:57.116Z,996.97
2018-08-20T13:59:07.211Z,996.97
2018-08-20T14:00:17.299Z,996.94
2018-08-20T14:01:27.383Z,996.92
2018-08-20T14:02:37.455Z,996.95
2018-08-20T14:03:47.565Z,996.95
2018-08-20T14:04:57.665Z,996.94
2018-08-20T14:06:07.485Z,996.95
2018-08-20T14:07:17.049Z,996.97
2018-08-20T14:08:27.142Z,996.91
2018-08-20T14:09:36.987Z,996.9
2018-08-20T14:10:47.076Z,996.87
2018-08-20T14:11:57.166Z,996.86
2018-08-20T14:13:07.062Z,996.83
2018-08-20T14:14:16.919Z,996.84
2018-08-20T14:15:27.080Z,996.87
2018-08-20T14:16:37.450Z,996.84
2018-08-20T14:17:47.011Z,996.82
2018-08-20T14:18:57.093Z,996.83
2018-08-20T14:20:06.963Z,996.84
2018-08-20T14:21:17.052Z,996.85
2018-08-20T14:22:27.209Z,996.82
2018-08-20T14:23:37.316Z,996.82
2018-08-20T14:24:47.191Z,996.82
2018-08-20T14:25:57.335Z,996.8
2018-08-20T14:27:07.417Z,996.84
2018-08-20T14:28:16.902Z,996.82
2018-08-20T14:29:26.991Z,996.85
2018-08-20T14:30:37.124Z,996.8
2018-08-20T14:31:47.425Z,996.79
2018-08-20T14:32:57.613Z,996.8
2018-08-20T14:34:07.478Z,996.76
2018-08-20T14:35:17.322Z,996.83
2018-08-20T14:36:27.221Z,996.79
2018-08-20T14:37:37.989Z,996.83
2018-08-20T14:38:48.093Z,996.81
2018-08-20T14:39:58.186Z,996.84
2018-08-20T14:41:08.575Z,996.79
2018-08-20T14:42:18.435Z,996.78
2018-08-20T14:43:28.627Z,996.81
2018-08-20T14:44:38.748Z,996.82
2018-08-20T14:45:48.880Z,996.81
2018-08-20T14:46:58.964Z,996.8
2018-08-20T14:48:09.063Z,996.8
2018-08-20T14:49:19.151Z,996.78
2018-08-20T14:50:28.981Z,996.79
2018-08-20T14:51:39.049Z,996.77
2018-08-20T14:52:49.169Z,996.76
2018-08-20T14:53:59.268Z,996.74
2018-08-20T14:55:09.356Z,996.73
2018-08-20T14:56:19.443Z,996.72
2018-08-20T14:57:29.555Z,996.66
2018-08-20T14:58:39.643Z,996.66
2018-08-20T14:59:49.734Z,996.66
2018-08-20T15:00:59.832Z,996.66
2018-08-20T15:02:09.920Z,996.72
2018-08-20T15:03:19.796Z,996.73
2018-08-20T15:04:29.621Z,996.7
2018-08-20T15:05:39.707Z,996.66
2018-08-20T15:06:49.813Z,996.68
2018-08-20T15:07:59.911Z,996.69